Flight Track Log - Related Links

Times and Time Zones

All times are in EST time to prevent confusion due to time zone crossing. See the N35079 flight status page for this flight to view local times or setup timezone preferences in your user account.

Time Position Orientation Groundspeed Altitude Reporting Facility
EST Latitude Longitude Course Direction KTS MPH feet Rate Location/Type
Tue 05:28:27 PM 26.8069 -80.5294 327° Northwest 117 135 8,400  Level Miami Center
Tue 05:29:27 PM 26.8358 -80.5467 332° Northwest 117 135 8,500 50 Climbing Miami Center
Tue 05:30:00 PM 27.1637 -80.7488 330° Northwest  Level Estimated
Tue 05:30:27 PM 26.8625 -80.5614 334° Northwest 123 142 8,500  Level Miami Center
Tue 05:31:00 PM 27.1993 -80.7703 344° North  Level Estimated
Tue 05:31:27 PM 26.8956 -80.5786 335° Northwest 123 142 8,500  Level Miami Center
Tue 05:32:00 PM 27.2350 -80.7916 332° Northwest  Level FlightAware Approximate
Tue 05:32:27 PM 26.9242 -80.5983 328° Northwest 123 142 8,500  Level Miami Center
Tue 05:33:00 PM 27.2705 -80.8131 327° Northwest  Level Estimated
Tue 05:33:27 PM 26.9614 -80.6158 337° Northwest 128 147 8,500  Level Miami Center
Tue 05:34:27 PM 26.9881 -80.6353 327° Northwest 132 152 8,500 -50 Level Miami Center
Tue 05:35:27 PM 27.0128 -80.6525 328° Northwest 129 148 8,400 -50 Descending Miami Center
Tue 05:36:27 PM 27.0414 -80.6719 329° Northwest 124 143 8,400  Level Miami Center
Tue 05:37:27 PM 27.0722 -80.6917 330° Northwest 119 137 8,400  Level Miami Center
Tue 05:38:27 PM 27.1031 -80.7067 337° Northwest 119 137 8,400  Level Miami Center
Tue 05:39:27 PM 27.1319 -80.7239 332° Northwest 119 137 8,400  Level Miami Center
Tue 05:40:27 PM 27.1567 -80.7386 332° Northwest 114 131 8,400 50 Level Miami Center
Tue 05:41:27 PM 27.1853 -80.7583 328° Northwest 109 125 8,500 50 Climbing Miami Center
Tue 05:42:27 PM 27.2161 -80.7781 330° Northwest 114 131 8,500 -50 Level Miami Center
Tue 05:43:27 PM 27.2428 -80.7953 330° Northwest 114 131 8,400 -50 Descending Miami Center
Tue 05:44:27 PM 27.2672 -80.8103 331° Northwest 114 131 8,400  Level Miami Center
Tue 05:45:27 PM 27.2961 -80.8253 335° Northwest 114 131 8,400 50 Level Miami Center
Tue 05:46:27 PM 27.3269 -80.8450 330° Northwest 114 131 8,500  Climbing Miami Center
Tue 05:47:27 PM 27.3556 -80.8622 332° Northwest 114 131 8,400 -50 Descending Miami Center
Tue 05:48:27 PM 27.3844 -80.8819 329° Northwest 114 131 8,400  Level Miami Center
Tue 05:49:27 PM 27.4131 -80.8994 332° Northwest 114 131 8,400  Level Miami Center
Tue 05:50:27 PM 27.4417 -80.9192 329° Northwest 114 131 8,400  Level Miami Center
Tue 05:51:27 PM 27.4603 -80.9339 325° Northwest 114 131 8,400  Level Miami Center
Tue 05:52:27 PM 27.4928 -80.9583 326° Northwest 119 137 8,400  Level Miami Center
Tue 05:53:27 PM 27.5194 -80.9758 330° Northwest 119 137 8,400  Level Miami Center
Tue 05:54:27 PM 27.5528 -80.9839 348° North 119 137 8,400  Level Miami Center
Tue 05:55:27 PM 27.5753 -80.9964 334° Northwest 110 127 8,400 50 Level Miami Center
Tue 05:56:27 PM 27.6017 -81.0186 323° Northwest 110 127 8,500 -333 Climbing Miami Center
Tue 05:58:09 PM 27.6500 -81.0500 330° Northwest 116 133 7,500 -821 Descending Orlando TRACON
Tue 05:59:15 PM 27.6833 -81.0667 336° Northwest 117 135 6,200 -1,143 Descending Orlando TRACON
Tue 06:00:15 PM 27.7000 -81.1000 299° West 110 127 5,100 -1,000 Descending Orlando TRACON
Tue 06:01:15 PM 27.7333 -81.1000 360° North 152 175 4,200 -381 Descending Orlando TRACON
Tue 06:02:21 PM 27.7667 -81.1000 360° North 127 146 4,300 48 Climbing Orlando TRACON
Tue 06:03:21 PM 27.8167 -81.1167 344° North 135 155 4,300 48 Level Orlando TRACON
Tue 06:04:27 PM 27.8500 -81.1333 336° Northwest 127 146 4,400 95 Climbing Orlando TRACON
Tue 06:05:27 PM 27.8667 -81.1500 319° Northwest 121 139 4,500 53 Climbing Orlando TRACON
Tue 06:06:21 PM 27.9000 -81.1667 336° Northwest 131 151 4,500  Level Orlando TRACON
Tue 06:07:21 PM 27.9333 -81.1833 336° Northwest 130 150 4,500 -143 Level Orlando TRACON
Tue 06:08:27 PM 27.9667 -81.2167 319° Northwest 130 150 4,200 -397 Descending Orlando TRACON
Tue 06:09:22 PM 28.0000 -81.2333 336° Northwest 129 148 3,700 -939 Descending Orlando TRACON
Tue 06:10:22 PM 28.0167 -81.2500 319° Northwest 117 135 2,400 -960 Descending Orlando TRACON
Tue 06:11:27 PM 28.0500 -81.2833 319° Northwest 128 147 1,700 -576 Descending Orlando TRACON
Tue 06:12:27 PM 28.0833 -81.3000 336° Northwest 118 136 1,200 -313 Descending Orlando TRACON
Tue 06:13:22 PM 28.1000 -81.3333 300° West 119 137 1,100 50 Descending Orlando TRACON
Tue 06:14:28 PM 28.1333 -81.3500 336° Northwest 118 136 1,300 100 Climbing Orlando TRACON
Tue 06:15:22 PM 28.1500 -81.3667 319° Northwest 118 136 1,300 -105 Level Orlando TRACON
Tue 06:16:22 PM 28.1833 -81.3667 360° North 118 136 1,100 -190 Descending Orlando TRACON
Tue 06:17:28 PM 28.2167 -81.3833 336° Northwest 119 137 900 -95 Descending Orlando TRACON
Tue 06:18:28 PM 28.2500 -81.4000 336° Northwest 116 133 900 -50 Level Orlando TRACON
Tue 06:19:28 PM 28.2833 -81.4167 336° Northwest 108 124 800  Descending Orlando TRACON
Tue 06:20:28 PM 28.3000 -81.4167 360° North 112 129 900 -150 Climbing Orlando TRACON
Tue 06:21:28 PM 28.3167 -81.4500 300° West 76 87 500 -400 Descending Orlando TRACON

Login

Don't have an account? Register now (free) for customized features, flight alerts, and more!